sensor_id;sensor_type;location;lat;lon;timestamp;P1;durP1;ratioP1;P2;durP2;ratioP2
11921;SDS011;6021;51.182;3.160;2022-12-18T00:01:32;95.17;;;44.43;;
11921;SDS011;6021;51.182;3.160;2022-12-18T00:04:05;99.03;;;44.60;;
11921;SDS011;6021;51.182;3.160;2022-12-18T00:06:35;100.93;;;48.67;;
11921;SDS011;6021;51.182;3.160;2022-12-18T00:09:03;99.93;;;49.50;;
11921;SDS011;6021;51.182;3.160;2022-12-18T00:11:32;101.90;;;46.00;;
11921;SDS011;6021;51.182;3.160;2022-12-18T00:14:00;96.87;;;46.00;;
11921;SDS011;6021;51.182;3.160;2022-12-18T00:16:28;90.17;;;47.73;;
11921;SDS011;6021;51.182;3.160;2022-12-18T00:18:59;103.13;;;49.43;;
11921;SDS011;6021;51.182;3.160;2022-12-18T00:21:28;97.20;;;42.60;;
11921;SDS011;6021;51.182;3.160;2022-12-18T00:23:58;99.90;;;46.83;;
11921;SDS011;6021;51.182;3.160;2022-12-18T00:26:31;90.70;;;44.63;;
11921;SDS011;6021;51.182;3.160;2022-12-18T00:29:05;92.00;;;44.10;;
11921;SDS011;6021;51.182;3.160;2022-12-18T00:31:32;90.77;;;45.53;;
11921;SDS011;6021;51.182;3.160;2022-12-18T00:34:01;80.80;;;41.07;;
11921;SDS011;6021;51.182;3.160;2022-12-18T00:36:30;88.83;;;44.27;;
11921;SDS011;6021;51.182;3.160;2022-12-18T00:39:03;91.57;;;45.97;;
11921;SDS011;6021;51.182;3.160;2022-12-18T00:41:32;84.37;;;45.87;;
11921;SDS011;6021;51.182;3.160;2022-12-18T00:44:15;81.80;;;42.80;;
11921;SDS011;6021;51.182;3.160;2022-12-18T00:46:45;79.53;;;43.90;;
11921;SDS011;6021;51.182;3.160;2022-12-18T00:49:18;69.80;;;38.43;;
11921;SDS011;6021;51.182;3.160;2022-12-18T00:51:47;78.07;;;41.73;;
11921;SDS011;6021;51.182;3.160;2022-12-18T00:54:16;78.20;;;41.67;;
11921;SDS011;6021;51.182;3.160;2022-12-18T00:56:45;79.70;;;42.10;;
11921;SDS011;6021;51.182;3.160;2022-12-18T00:59:14;78.80;;;38.20;;
11921;SDS011;6021;51.182;3.160;2022-12-18T01:01:43;76.30;;;39.17;;
11921;SDS011;6021;51.182;3.160;2022-12-18T01:04:12;67.63;;;37.13;;
11921;SDS011;6021;51.182;3.160;2022-12-18T01:06:41;66.17;;;37.63;;
11921;SDS011;6021;51.182;3.160;2022-12-18T01:09:10;64.67;;;38.70;;
11921;SDS011;6021;51.182;3.160;2022-12-18T01:11:39;64.57;;;34.73;;
11921;SDS011;6021;51.182;3.160;2022-12-18T01:14:07;62.27;;;36.77;;
11921;SDS011;6021;51.182;3.160;2022-12-18T01:16:36;63.00;;;39.83;;
11921;SDS011;6021;51.182;3.160;2022-12-18T01:19:05;61.60;;;37.87;;
11921;SDS011;6021;51.182;3.160;2022-12-18T01:21:33;68.90;;;36.93;;
11921;SDS011;6021;51.182;3.160;2022-12-18T01:24:01;66.63;;;39.00;;
11921;SDS011;6021;51.182;3.160;2022-12-18T01:26:30;62.33;;;37.53;;
11921;SDS011;6021;51.182;3.160;2022-12-18T01:28:59;62.33;;;35.50;;
11921;SDS011;6021;51.182;3.160;2022-12-18T01:31:28;57.87;;;36.07;;
11921;SDS011;6021;51.182;3.160;2022-12-18T01:33:59;59.33;;;34.03;;
11921;SDS011;6021;51.182;3.160;2022-12-18T01:36:29;58.23;;;38.47;;
11921;SDS011;6021;51.182;3.160;2022-12-18T01:38:59;56.63;;;37.50;;
11921;SDS011;6021;51.182;3.160;2022-12-18T01:41:31;56.50;;;36.33;;
11921;SDS011;6021;51.182;3.160;2022-12-18T01:50:16;57.63;;;35.20;;
11921;SDS011;6021;51.182;3.160;2022-12-18T01:52:42;61.93;;;38.20;;
11921;SDS011;6021;51.182;3.160;2022-12-18T01:55:14;59.63;;;37.70;;
11921;SDS011;6021;51.182;3.160;2022-12-18T01:57:44;57.97;;;37.83;;
11921;SDS011;6021;51.182;3.160;2022-12-18T02:00:15;58.00;;;37.43;;
11921;SDS011;6021;51.182;3.160;2022-12-18T02:02:46;60.50;;;40.37;;
11921;SDS011;6021;51.182;3.160;2022-12-18T02:05:24;55.53;;;34.57;;
11921;SDS011;6021;51.182;3.160;2022-12-18T02:10:37;54.67;;;35.80;;
11921;SDS011;6021;51.182;3.160;2022-12-18T02:13:19;50.37;;;35.93;;
11921;SDS011;6021;51.182;3.160;2022-12-18T02:18:50;48.27;;;34.83;;
11921;SDS011;6021;51.182;3.160;2022-12-18T02:24:10;46.37;;;32.20;;
11921;SDS011;6021;51.182;3.160;2022-12-18T02:26:48;48.23;;;32.63;;
11921;SDS011;6021;51.182;3.160;2022-12-18T02:29:25;44.97;;;33.80;;
11921;SDS011;6021;51.182;3.160;2022-12-18T02:31:58;46.33;;;33.87;;
11921;SDS011;6021;51.182;3.160;2022-12-18T02:34:28;47.73;;;33.07;;
11921;SDS011;6021;51.182;3.160;2022-12-18T02:37:00;49.33;;;34.63;;
11921;SDS011;6021;51.182;3.160;2022-12-18T02:39:32;47.97;;;34.17;;
11921;SDS011;6021;51.182;3.160;2022-12-18T02:42:01;50.90;;;31.30;;
11921;SDS011;6021;51.182;3.160;2022-12-18T02:44:31;49.30;;;32.50;;
11921;SDS011;6021;51.182;3.160;2022-12-18T02:47:00;47.53;;;32.93;;
11921;SDS011;6021;51.182;3.160;2022-12-18T02:52:16;48.60;;;33.13;;
11921;SDS011;6021;51.182;3.160;2022-12-18T02:57:58;51.17;;;34.40;;
11921;SDS011;6021;51.182;3.160;2022-12-18T03:00:36;51.13;;;36.07;;
11921;SDS011;6021;51.182;3.160;2022-12-18T03:03:18;52.57;;;33.47;;
11921;SDS011;6021;51.182;3.160;2022-12-18T03:05:50;53.70;;;34.00;;
11921;SDS011;6021;51.182;3.160;2022-12-18T03:08:23;53.63;;;35.97;;
11921;SDS011;6021;51.182;3.160;2022-12-18T03:11:04;53.67;;;35.07;;
11921;SDS011;6021;51.182;3.160;2022-12-18T03:13:28;54.87;;;34.90;;
11921;SDS011;6021;51.182;3.160;2022-12-18T03:16:01;55.23;;;38.70;;
11921;SDS011;6021;51.182;3.160;2022-12-18T03:18:33;56.07;;;39.73;;
11921;SDS011;6021;51.182;3.160;2022-12-18T03:21:05;55.50;;;35.20;;
11921;SDS011;6021;51.182;3.160;2022-12-18T03:23:40;54.43;;;39.30;;
11921;SDS011;6021;51.182;3.160;2022-12-18T03:26:07;56.90;;;41.00;;
11921;SDS011;6021;51.182;3.160;2022-12-18T03:28:42;57.13;;;40.87;;
11921;SDS011;6021;51.182;3.160;2022-12-18T03:31:09;55.70;;;41.00;;
11921;SDS011;6021;51.182;3.160;2022-12-18T03:33:46;57.33;;;41.07;;
11921;SDS011;6021;51.182;3.160;2022-12-18T03:36:23;57.70;;;41.43;;
11921;SDS011;6021;51.182;3.160;2022-12-18T03:38:52;58.73;;;42.37;;
11921;SDS011;6021;51.182;3.160;2022-12-18T03:41:31;54.30;;;40.20;;
11921;SDS011;6021;51.182;3.160;2022-12-18T03:44:14;58.07;;;41.37;;
11921;SDS011;6021;51.182;3.160;2022-12-18T03:46:49;57.27;;;42.10;;
11921;SDS011;6021;51.182;3.160;2022-12-18T03:51:57;52.90;;;38.20;;
11921;SDS011;6021;51.182;3.160;2022-12-18T03:54:27;54.13;;;38.23;;
11921;SDS011;6021;51.182;3.160;2022-12-18T03:56:59;53.87;;;37.83;;
11921;SDS011;6021;51.182;3.160;2022-12-18T03:59:29;50.17;;;36.90;;
11921;SDS011;6021;51.182;3.160;2022-12-18T04:01:59;47.20;;;35.47;;
11921;SDS011;6021;51.182;3.160;2022-12-18T04:04:29;48.37;;;36.57;;
11921;SDS011;6021;51.182;3.160;2022-12-18T04:06:59;46.73;;;35.37;;
11921;SDS011;6021;51.182;3.160;2022-12-18T04:09:27;45.03;;;34.53;;
11921;SDS011;6021;51.182;3.160;2022-12-18T04:11:57;49.83;;;34.00;;
11921;SDS011;6021;51.182;3.160;2022-12-18T04:14:26;46.93;;;33.00;;
11921;SDS011;6021;51.182;3.160;2022-12-18T04:16:54;41.73;;;32.90;;
11921;SDS011;6021;51.182;3.160;2022-12-18T04:19:22;46.60;;;35.17;;
11921;SDS011;6021;51.182;3.160;2022-12-18T04:21:51;45.87;;;35.37;;
11921;SDS011;6021;51.182;3.160;2022-12-18T04:24:19;48.20;;;34.83;;
11921;SDS011;6021;51.182;3.160;2022-12-18T04:26:48;47.90;;;35.73;;
11921;SDS011;6021;51.182;3.160;2022-12-18T04:29:16;47.43;;;35.23;;
11921;SDS011;6021;51.182;3.160;2022-12-18T04:31:44;45.33;;;34.37;;
11921;SDS011;6021;51.182;3.160;2022-12-18T04:34:13;49.87;;;34.77;;
11921;SDS011;6021;51.182;3.160;2022-12-18T04:36:41;51.40;;;39.13;;
11921;SDS011;6021;51.182;3.160;2022-12-18T04:39:10;52.13;;;39.33;;
11921;SDS011;6021;51.182;3.160;2022-12-18T04:41:38;50.27;;;35.10;;
11921;SDS011;6021;51.182;3.160;2022-12-18T04:44:07;50.40;;;36.00;;
11921;SDS011;6021;51.182;3.160;2022-12-18T04:46:36;53.17;;;39.73;;
11921;SDS011;6021;51.182;3.160;2022-12-18T04:49:04;53.17;;;37.70;;
11921;SDS011;6021;51.182;3.160;2022-12-18T04:51:32;52.97;;;38.40;;
11921;SDS011;6021;51.182;3.160;2022-12-18T04:54:01;54.83;;;40.53;;
11921;SDS011;6021;51.182;3.160;2022-12-18T04:56:31;53.20;;;36.40;;
11921;SDS011;6021;51.182;3.160;2022-12-18T04:58:59;52.17;;;36.27;;
11921;SDS011;6021;51.182;3.160;2022-12-18T05:01:28;51.67;;;36.20;;
11921;SDS011;6021;51.182;3.160;2022-12-18T05:03:56;58.30;;;41.30;;
11921;SDS011;6021;51.182;3.160;2022-12-18T05:06:25;56.60;;;41.07;;
11921;SDS011;6021;51.182;3.160;2022-12-18T05:08:53;53.33;;;40.30;;
11921;SDS011;6021;51.182;3.160;2022-12-18T05:11:22;53.87;;;39.53;;
11921;SDS011;6021;51.182;3.160;2022-12-18T05:13:50;51.97;;;40.40;;
11921;SDS011;6021;51.182;3.160;2022-12-18T05:16:18;53.03;;;36.77;;
11921;SDS011;6021;51.182;3.160;2022-12-18T05:18:47;49.50;;;37.50;;
11921;SDS011;6021;51.182;3.160;2022-12-18T05:21:15;51.67;;;39.83;;
11921;SDS011;6021;51.182;3.160;2022-12-18T05:23:44;52.47;;;39.50;;
11921;SDS011;6021;51.182;3.160;2022-12-18T05:26:14;50.27;;;38.10;;
11921;SDS011;6021;51.182;3.160;2022-12-18T05:28:43;49.73;;;35.87;;
11921;SDS011;6021;51.182;3.160;2022-12-18T05:31:12;52.50;;;38.73;;
11921;SDS011;6021;51.182;3.160;2022-12-18T05:33:41;54.20;;;39.07;;
11921;SDS011;6021;51.182;3.160;2022-12-18T05:36:09;53.50;;;40.00;;
11921;SDS011;6021;51.182;3.160;2022-12-18T05:38:38;54.77;;;41.50;;
11921;SDS011;6021;51.182;3.160;2022-12-18T05:41:07;57.73;;;42.47;;
11921;SDS011;6021;51.182;3.160;2022-12-18T05:43:37;56.43;;;40.27;;
11921;SDS011;6021;51.182;3.160;2022-12-18T05:46:14;54.83;;;41.53;;
11921;SDS011;6021;51.182;3.160;2022-12-18T05:48:44;55.77;;;40.53;;
11921;SDS011;6021;51.182;3.160;2022-12-18T05:51:13;53.60;;;39.07;;
11921;SDS011;6021;51.182;3.160;2022-12-18T05:53:44;55.33;;;41.73;;
11921;SDS011;6021;51.182;3.160;2022-12-18T05:56:14;52.77;;;40.63;;
11921;SDS011;6021;51.182;3.160;2022-12-18T05:58:44;52.40;;;40.27;;
11921;SDS011;6021;51.182;3.160;2022-12-18T06:01:14;54.87;;;40.90;;
11921;SDS011;6021;51.182;3.160;2022-12-18T06:03:44;51.97;;;38.50;;
11921;SDS011;6021;51.182;3.160;2022-12-18T06:06:13;52.03;;;38.13;;
11921;SDS011;6021;51.182;3.160;2022-12-18T06:08:42;52.93;;;38.20;;
11921;SDS011;6021;51.182;3.160;2022-12-18T06:11:11;48.47;;;36.47;;
11921;SDS011;6021;51.182;3.160;2022-12-18T06:13:40;48.13;;;35.93;;
11921;SDS011;6021;51.182;3.160;2022-12-18T06:16:08;47.90;;;35.27;;
11921;SDS011;6021;51.182;3.160;2022-12-18T06:18:37;47.90;;;34.47;;
11921;SDS011;6021;51.182;3.160;2022-12-18T06:21:05;46.13;;;34.20;;
11921;SDS011;6021;51.182;3.160;2022-12-18T06:23:34;44.17;;;30.97;;
11921;SDS011;6021;51.182;3.160;2022-12-18T06:26:03;42.87;;;29.80;;
11921;SDS011;6021;51.182;3.160;2022-12-18T06:28:33;44.40;;;33.37;;
11921;SDS011;6021;51.182;3.160;2022-12-18T06:31:02;41.37;;;30.23;;
11921;SDS011;6021;51.182;3.160;2022-12-18T06:33:31;39.57;;;27.97;;
11921;SDS011;6021;51.182;3.160;2022-12-18T06:36:05;40.47;;;31.73;;
11921;SDS011;6021;51.182;3.160;2022-12-18T06:38:31;42.77;;;30.10;;
11921;SDS011;6021;51.182;3.160;2022-12-18T06:41:05;43.90;;;32.60;;
11921;SDS011;6021;51.182;3.160;2022-12-18T06:43:40;44.27;;;32.10;;
11921;SDS011;6021;51.182;3.160;2022-12-18T06:46:09;43.80;;;32.57;;
11921;SDS011;6021;51.182;3.160;2022-12-18T06:48:38;41.13;;;30.47;;
11921;SDS011;6021;51.182;3.160;2022-12-18T06:51:06;43.00;;;31.13;;
11921;SDS011;6021;51.182;3.160;2022-12-18T06:53:35;42.07;;;31.87;;
11921;SDS011;6021;51.182;3.160;2022-12-18T06:56:04;42.40;;;32.83;;
11921;SDS011;6021;51.182;3.160;2022-12-18T06:58:34;41.83;;;31.43;;
11921;SDS011;6021;51.182;3.160;2022-12-18T07:01:03;41.13;;;30.90;;
11921;SDS011;6021;51.182;3.160;2022-12-18T07:03:32;40.40;;;29.60;;
11921;SDS011;6021;51.182;3.160;2022-12-18T07:06:01;38.00;;;28.67;;
11921;SDS011;6021;51.182;3.160;2022-12-18T07:08:30;35.73;;;27.73;;
11921;SDS011;6021;51.182;3.160;2022-12-18T07:11:02;35.60;;;27.17;;
11921;SDS011;6021;51.182;3.160;2022-12-18T07:13:30;35.70;;;26.40;;
11921;SDS011;6021;51.182;3.160;2022-12-18T07:16:06;35.20;;;26.87;;
11921;SDS011;6021;51.182;3.160;2022-12-18T07:18:41;36.77;;;26.10;;
11921;SDS011;6021;51.182;3.160;2022-12-18T07:21:11;31.60;;;24.87;;
11921;SDS011;6021;51.182;3.160;2022-12-18T07:23:41;34.17;;;27.00;;
11921;SDS011;6021;51.182;3.160;2022-12-18T07:26:11;33.73;;;25.23;;
11921;SDS011;6021;51.182;3.160;2022-12-18T07:28:41;33.53;;;25.83;;
11921;SDS011;6021;51.182;3.160;2022-12-18T07:31:16;35.90;;;25.80;;
11921;SDS011;6021;51.182;3.160;2022-12-18T07:33:41;33.80;;;25.60;;
11921;SDS011;6021;51.182;3.160;2022-12-18T07:36:10;31.90;;;24.97;;
11921;SDS011;6021;51.182;3.160;2022-12-18T07:38:39;32.03;;;24.60;;
11921;SDS011;6021;51.182;3.160;2022-12-18T07:41:09;31.37;;;24.10;;
11921;SDS011;6021;51.182;3.160;2022-12-18T07:43:39;32.77;;;23.13;;
11921;SDS011;6021;51.182;3.160;2022-12-18T07:46:09;30.77;;;23.77;;
11921;SDS011;6021;51.182;3.160;2022-12-18T07:48:40;27.73;;;22.20;;
11921;SDS011;6021;51.182;3.160;2022-12-18T07:51:09;28.83;;;21.77;;
11921;SDS011;6021;51.182;3.160;2022-12-18T07:53:39;26.33;;;20.03;;
11921;SDS011;6021;51.182;3.160;2022-12-18T07:56:09;25.33;;;20.63;;
11921;SDS011;6021;51.182;3.160;2022-12-18T07:58:40;27.60;;;20.90;;
11921;SDS011;6021;51.182;3.160;2022-12-18T08:01:11;25.80;;;20.20;;
11921;SDS011;6021;51.182;3.160;2022-12-18T08:03:40;25.47;;;18.60;;
11921;SDS011;6021;51.182;3.160;2022-12-18T08:06:08;23.63;;;19.43;;
11921;SDS011;6021;51.182;3.160;2022-12-18T08:08:37;23.60;;;18.77;;
11921;SDS011;6021;51.182;3.160;2022-12-18T08:11:08;21.30;;;17.20;;
11921;SDS011;6021;51.182;3.160;2022-12-18T08:13:36;22.83;;;18.47;;
11921;SDS011;6021;51.182;3.160;2022-12-18T08:16:05;22.43;;;17.97;;
11921;SDS011;6021;51.182;3.160;2022-12-18T08:18:37;23.27;;;19.17;;
11921;SDS011;6021;51.182;3.160;2022-12-18T08:21:12;24.37;;;18.70;;
11921;SDS011;6021;51.182;3.160;2022-12-18T08:23:43;22.93;;;17.87;;
11921;SDS011;6021;51.182;3.160;2022-12-18T08:26:12;23.73;;;17.83;;
11921;SDS011;6021;51.182;3.160;2022-12-18T08:28:42;21.97;;;18.47;;
11921;SDS011;6021;51.182;3.160;2022-12-18T08:31:11;21.70;;;17.90;;
11921;SDS011;6021;51.182;3.160;2022-12-18T08:33:41;23.60;;;19.40;;
11921;SDS011;6021;51.182;3.160;2022-12-18T08:36:09;22.90;;;17.80;;
11921;SDS011;6021;51.182;3.160;2022-12-18T08:38:38;24.87;;;18.57;;
11921;SDS011;6021;51.182;3.160;2022-12-18T08:41:11;24.70;;;19.67;;
11921;SDS011;6021;51.182;3.160;2022-12-18T08:43:38;23.37;;;19.40;;
11921;SDS011;6021;51.182;3.160;2022-12-18T08:46:25;23.47;;;19.20;;
11921;SDS011;6021;51.182;3.160;2022-12-18T08:48:54;23.50;;;19.10;;
11921;SDS011;6021;51.182;3.160;2022-12-18T08:51:23;23.70;;;19.63;;
11921;SDS011;6021;51.182;3.160;2022-12-18T08:53:51;22.43;;;19.27;;
11921;SDS011;6021;51.182;3.160;2022-12-18T08:56:22;23.67;;;20.10;;
11921;SDS011;6021;51.182;3.160;2022-12-18T08:58:52;22.43;;;19.70;;
11921;SDS011;6021;51.182;3.160;2022-12-18T09:01:21;24.93;;;19.93;;
11921;SDS011;6021;51.182;3.160;2022-12-18T09:03:50;23.73;;;19.13;;
11921;SDS011;6021;51.182;3.160;2022-12-18T09:06:20;22.83;;;19.23;;
11921;SDS011;6021;51.182;3.160;2022-12-18T09:08:49;23.50;;;17.50;;
11921;SDS011;6021;51.182;3.160;2022-12-18T09:11:24;21.03;;;16.70;;
11921;SDS011;6021;51.182;3.160;2022-12-18T09:13:54;20.97;;;16.17;;
11921;SDS011;6021;51.182;3.160;2022-12-18T09:16:23;20.67;;;16.07;;
11921;SDS011;6021;51.182;3.160;2022-12-18T09:18:54;22.03;;;17.80;;
11921;SDS011;6021;51.182;3.160;2022-12-18T09:21:25;21.30;;;16.80;;
11921;SDS011;6021;51.182;3.160;2022-12-18T09:23:55;20.83;;;16.63;;
11921;SDS011;6021;51.182;3.160;2022-12-18T09:26:24;19.87;;;15.13;;
11921;SDS011;6021;51.182;3.160;2022-12-18T09:28:53;19.70;;;16.17;;
11921;SDS011;6021;51.182;3.160;2022-12-18T09:31:22;20.23;;;15.27;;
11921;SDS011;6021;51.182;3.160;2022-12-18T09:33:52;19.07;;;15.77;;
11921;SDS011;6021;51.182;3.160;2022-12-18T09:36:22;21.17;;;15.73;;
11921;SDS011;6021;51.182;3.160;2022-12-18T09:38:50;19.30;;;15.73;;
11921;SDS011;6021;51.182;3.160;2022-12-18T09:41:39;19.93;;;15.17;;
11921;SDS011;6021;51.182;3.160;2022-12-18T09:46:54;18.83;;;15.60;;
11921;SDS011;6021;51.182;3.160;2022-12-18T09:49:21;19.23;;;14.87;;
11921;SDS011;6021;51.182;3.160;2022-12-18T09:52:00;19.87;;;14.97;;
11921;SDS011;6021;51.182;3.160;2022-12-18T09:54:36;18.00;;;15.13;;
11921;SDS011;6021;51.182;3.160;2022-12-18T09:57:21;18.20;;;15.53;;
11921;SDS011;6021;51.182;3.160;2022-12-18T09:59:55;22.03;;;16.30;;
11921;SDS011;6021;51.182;3.160;2022-12-18T10:02:26;17.73;;;15.17;;
11921;SDS011;6021;51.182;3.160;2022-12-18T10:05:05;20.03;;;15.10;;
11921;SDS011;6021;51.182;3.160;2022-12-18T10:10:27;19.27;;;14.97;;
11921;SDS011;6021;51.182;3.160;2022-12-18T10:13:15;18.47;;;15.93;;
11921;SDS011;6021;51.182;3.160;2022-12-18T10:15:50;16.93;;;14.10;;
11921;SDS011;6021;51.182;3.160;2022-12-18T10:21:00;20.33;;;15.80;;
11921;SDS011;6021;51.182;3.160;2022-12-18T10:24:15;19.17;;;14.80;;
11921;SDS011;6021;51.182;3.160;2022-12-18T10:26:10;19.43;;;15.07;;
11921;SDS011;6021;51.182;3.160;2022-12-18T10:28:41;17.90;;;14.93;;
11921;SDS011;6021;51.182;3.160;2022-12-18T10:31:17;18.57;;;14.90;;
11921;SDS011;6021;51.182;3.160;2022-12-18T10:33:48;20.80;;;14.97;;
11921;SDS011;6021;51.182;3.160;2022-12-18T10:36:16;19.13;;;15.47;;
11921;SDS011;6021;51.182;3.160;2022-12-18T10:38:45;18.73;;;15.63;;
11921;SDS011;6021;51.182;3.160;2022-12-18T10:44:11;19.97;;;15.77;;
11921;SDS011;6021;51.182;3.160;2022-12-18T10:46:41;21.47;;;16.10;;
11921;SDS011;6021;51.182;3.160;2022-12-18T10:49:19;20.33;;;16.87;;
11921;SDS011;6021;51.182;3.160;2022-12-18T10:52:15;22.57;;;17.00;;
11921;SDS011;6021;51.182;3.160;2022-12-18T10:54:45;22.40;;;17.53;;
11921;SDS011;6021;51.182;3.160;2022-12-18T10:57:28;21.63;;;16.63;;
11921;SDS011;6021;51.182;3.160;2022-12-18T10:59:58;20.80;;;17.20;;
11921;SDS011;6021;51.182;3.160;2022-12-18T11:02:34;20.90;;;17.57;;
11921;SDS011;6021;51.182;3.160;2022-12-18T11:05:23;20.17;;;16.03;;
11921;SDS011;6021;51.182;3.160;2022-12-18T11:07:57;22.63;;;18.00;;
11921;SDS011;6021;51.182;3.160;2022-12-18T11:10:33;21.90;;;16.83;;
11921;SDS011;6021;51.182;3.160;2022-12-18T11:13:20;21.07;;;16.10;;
11921;SDS011;6021;51.182;3.160;2022-12-18T11:15:46;20.00;;;16.03;;
11921;SDS011;6021;51.182;3.160;2022-12-18T11:21:01;20.37;;;16.47;;
11921;SDS011;6021;51.182;3.160;2022-12-18T11:23:36;21.80;;;16.60;;
11921;SDS011;6021;51.182;3.160;2022-12-18T11:26:06;21.40;;;15.40;;
11921;SDS011;6021;51.182;3.160;2022-12-18T11:28:43;21.73;;;15.80;;
11921;SDS011;6021;51.182;3.160;2022-12-18T11:31:11;20.00;;;15.93;;
11921;SDS011;6021;51.182;3.160;2022-12-18T11:33:42;21.33;;;15.83;;
11921;SDS011;6021;51.182;3.160;2022-12-18T11:36:13;20.50;;;15.50;;
11921;SDS011;6021;51.182;3.160;2022-12-18T11:38:43;21.03;;;16.13;;
11921;SDS011;6021;51.182;3.160;2022-12-18T11:41:26;23.30;;;16.77;;
11921;SDS011;6021;51.182;3.160;2022-12-18T11:44:28;21.73;;;16.90;;
11921;SDS011;6021;51.182;3.160;2022-12-18T11:47:47;21.57;;;16.57;;
11921;SDS011;6021;51.182;3.160;2022-12-18T11:49:38;21.70;;;17.13;;
11921;SDS011;6021;51.182;3.160;2022-12-18T11:52:15;20.97;;;16.93;;
11921;SDS011;6021;51.182;3.160;2022-12-18T11:54:52;23.67;;;17.33;;
11921;SDS011;6021;51.182;3.160;2022-12-18T11:57:31;24.10;;;17.63;;
11921;SDS011;6021;51.182;3.160;2022-12-18T12:00:12;22.67;;;18.10;;
11921;SDS011;6021;51.182;3.160;2022-12-18T12:06:07;23.53;;;18.53;;
11921;SDS011;6021;51.182;3.160;2022-12-18T12:10:41;24.03;;;18.03;;
11921;SDS011;6021;51.182;3.160;2022-12-18T12:16:04;23.37;;;18.03;;
11921;SDS011;6021;51.182;3.160;2022-12-18T12:18:52;25.50;;;17.97;;
11921;SDS011;6021;51.182;3.160;2022-12-18T12:21:39;23.87;;;18.47;;
11921;SDS011;6021;51.182;3.160;2022-12-18T12:27:10;25.33;;;18.87;;
11921;SDS011;6021;51.182;3.160;2022-12-18T12:29:59;24.87;;;18.93;;
11921;SDS011;6021;51.182;3.160;2022-12-18T12:38:11;25.77;;;19.87;;
11921;SDS011;6021;51.182;3.160;2022-12-18T12:40:51;27.00;;;19.90;;
11921;SDS011;6021;51.182;3.160;2022-12-18T12:43:22;26.27;;;19.43;;
11921;SDS011;6021;51.182;3.160;2022-12-18T12:45:56;26.93;;;20.20;;
11921;SDS011;6021;51.182;3.160;2022-12-18T12:48:47;27.90;;;20.50;;
11921;SDS011;6021;51.182;3.160;2022-12-18T12:51:25;27.27;;;21.10;;
11921;SDS011;6021;51.182;3.160;2022-12-18T12:53:56;26.70;;;20.43;;
11921;SDS011;6021;51.182;3.160;2022-12-18T12:56:36;26.67;;;20.20;;
11921;SDS011;6021;51.182;3.160;2022-12-18T12:59:31;28.27;;;21.37;;
11921;SDS011;6021;51.182;3.160;2022-12-18T13:05:09;29.03;;;21.53;;
11921;SDS011;6021;51.182;3.160;2022-12-18T13:07:37;30.80;;;22.27;;
11921;SDS011;6021;51.182;3.160;2022-12-18T13:12:55;31.07;;;21.83;;
11921;SDS011;6021;51.182;3.160;2022-12-18T13:15:28;27.60;;;21.47;;
11921;SDS011;6021;51.182;3.160;2022-12-18T13:20:44;29.97;;;22.17;;
11921;SDS011;6021;51.182;3.160;2022-12-18T13:34:23;30.50;;;22.87;;
11921;SDS011;6021;51.182;3.160;2022-12-18T13:36:53;30.87;;;22.73;;
11921;SDS011;6021;51.182;3.160;2022-12-18T13:39:25;30.67;;;22.63;;
11921;SDS011;6021;51.182;3.160;2022-12-18T13:44:39;29.77;;;22.70;;
11921;SDS011;6021;51.182;3.160;2022-12-18T13:47:24;31.87;;;22.43;;
11921;SDS011;6021;51.182;3.160;2022-12-18T13:49:40;32.00;;;23.27;;
11921;SDS011;6021;51.182;3.160;2022-12-18T13:52:15;32.13;;;23.47;;
11921;SDS011;6021;51.182;3.160;2022-12-18T13:54:51;31.60;;;22.27;;
11921;SDS011;6021;51.182;3.160;2022-12-18T13:57:27;32.47;;;23.13;;
11921;SDS011;6021;51.182;3.160;2022-12-18T13:59:57;31.17;;;22.70;;
11921;SDS011;6021;51.182;3.160;2022-12-18T14:02:28;31.10;;;23.47;;
11921;SDS011;6021;51.182;3.160;2022-12-18T14:04:56;32.03;;;22.33;;
11921;SDS011;6021;51.182;3.160;2022-12-18T14:07:25;32.77;;;22.73;;
11921;SDS011;6021;51.182;3.160;2022-12-18T14:09:59;31.97;;;21.93;;
11921;SDS011;6021;51.182;3.160;2022-12-18T14:12:31;32.00;;;22.53;;
11921;SDS011;6021;51.182;3.160;2022-12-18T14:20:54;31.23;;;21.90;;
11921;SDS011;6021;51.182;3.160;2022-12-18T14:23:34;29.60;;;20.70;;
11921;SDS011;6021;51.182;3.160;2022-12-18T14:26:27;30.97;;;22.53;;
11921;SDS011;6021;51.182;3.160;2022-12-18T14:28:57;29.37;;;21.53;;
11921;SDS011;6021;51.182;3.160;2022-12-18T14:31:31;30.20;;;21.93;;
11921;SDS011;6021;51.182;3.160;2022-12-18T14:33:59;32.70;;;22.57;;
11921;SDS011;6021;51.182;3.160;2022-12-18T14:36:28;33.63;;;22.87;;
11921;SDS011;6021;51.182;3.160;2022-12-18T14:38:57;32.70;;;22.87;;
11921;SDS011;6021;51.182;3.160;2022-12-18T14:41:26;33.23;;;22.40;;
11921;SDS011;6021;51.182;3.160;2022-12-18T14:43:56;33.13;;;23.27;;
11921;SDS011;6021;51.182;3.160;2022-12-18T14:46:32;32.13;;;21.60;;
11921;SDS011;6021;51.182;3.160;2022-12-18T14:49:04;31.77;;;21.37;;
11921;SDS011;6021;51.182;3.160;2022-12-18T14:51:53;31.23;;;21.23;;
11921;SDS011;6021;51.182;3.160;2022-12-18T14:54:23;31.40;;;22.47;;
11921;SDS011;6021;51.182;3.160;2022-12-18T14:59:29;30.93;;;21.03;;
11921;SDS011;6021;51.182;3.160;2022-12-18T15:05:16;31.83;;;21.97;;
11921;SDS011;6021;51.182;3.160;2022-12-18T15:07:38;31.40;;;21.17;;
11921;SDS011;6021;51.182;3.160;2022-12-18T15:10:16;31.63;;;21.73;;
11921;SDS011;6021;51.182;3.160;2022-12-18T15:12:49;29.87;;;21.60;;
11921;SDS011;6021;51.182;3.160;2022-12-18T15:18:05;33.00;;;21.97;;
11921;SDS011;6021;51.182;3.160;2022-12-18T15:20:50;32.17;;;21.67;;
11921;SDS011;6021;51.182;3.160;2022-12-18T15:23:25;32.27;;;21.37;;
11921;SDS011;6021;51.182;3.160;2022-12-18T15:25:59;29.83;;;20.17;;
11921;SDS011;6021;51.182;3.160;2022-12-18T15:28:38;34.00;;;21.67;;
11921;SDS011;6021;51.182;3.160;2022-12-18T15:34:10;31.90;;;21.30;;
11921;SDS011;6021;51.182;3.160;2022-12-18T15:36:22;32.00;;;22.73;;
11921;SDS011;6021;51.182;3.160;2022-12-18T15:38:52;31.63;;;21.83;;
11921;SDS011;6021;51.182;3.160;2022-12-18T15:41:21;32.83;;;21.63;;
11921;SDS011;6021;51.182;3.160;2022-12-18T15:43:51;31.30;;;21.10;;
11921;SDS011;6021;51.182;3.160;2022-12-18T15:46:21;30.33;;;21.27;;
11921;SDS011;6021;51.182;3.160;2022-12-18T15:48:52;32.30;;;21.20;;
11921;SDS011;6021;51.182;3.160;2022-12-18T15:53:56;30.90;;;21.60;;
11921;SDS011;6021;51.182;3.160;2022-12-18T15:56:26;31.90;;;21.03;;
11921;SDS011;6021;51.182;3.160;2022-12-18T15:59:14;33.70;;;22.03;;
11921;SDS011;6021;51.182;3.160;2022-12-18T16:01:46;31.37;;;21.50;;
11921;SDS011;6021;51.182;3.160;2022-12-18T16:04:16;31.20;;;21.80;;
11921;SDS011;6021;51.182;3.160;2022-12-18T16:06:49;34.00;;;22.43;;
11921;SDS011;6021;51.182;3.160;2022-12-18T16:09:18;33.07;;;21.67;;
11921;SDS011;6021;51.182;3.160;2022-12-18T16:11:46;36.07;;;23.37;;
11921;SDS011;6021;51.182;3.160;2022-12-18T16:14:29;35.30;;;22.13;;
11921;SDS011;6021;51.182;3.160;2022-12-18T16:17:03;36.47;;;24.33;;
11921;SDS011;6021;51.182;3.160;2022-12-18T16:19:28;36.63;;;23.37;;
11921;SDS011;6021;51.182;3.160;2022-12-18T16:21:57;36.30;;;23.80;;
11921;SDS011;6021;51.182;3.160;2022-12-18T16:24:28;35.37;;;22.73;;
11921;SDS011;6021;51.182;3.160;2022-12-18T16:26:58;38.43;;;24.60;;
11921;SDS011;6021;51.182;3.160;2022-12-18T16:29:27;35.37;;;23.10;;
11921;SDS011;6021;51.182;3.160;2022-12-18T16:31:58;39.77;;;23.93;;
11921;SDS011;6021;51.182;3.160;2022-12-18T16:34:31;39.40;;;24.53;;
11921;SDS011;6021;51.182;3.160;2022-12-18T16:37:02;36.50;;;22.97;;